Time;durP1;ratioP1;P1;durP2;ratioP2;P2;SDS_P1;SDS_P2;PMS_P1;PMS_P2;Temp;Humidity;BMP_temperature;BMP_pressure;BME280_temperature;BME280_humidity;BME280_pressure;Samples;Min_cycle;Max_cycle;Signal;HPM_P1;HPM_P2
2021/07/01 00:00:09;;;;;;;;;15.00;14.00;;;;;17.28;64.46;101078.47;5090822;27;45831;-80
2021/07/01 00:02:35;;;;;;;;;14.00;12.75;;;;;17.22;64.37;101067.63;5078844;27;46008;-80
2021/07/01 00:05:00;;;;;;;;;14.00;12.00;;;;;17.08;64.73;101047.69;5074099;27;45581;-81
2021/07/01 00:07:25;;;;;;;;;13.25;13.00;;;;;17.31;64.46;101088.81;5088390;27;46446;-80
2021/07/01 00:09:51;;;;;;;;;13.25;12.75;;;;;17.26;64.67;101079.59;5085892;27;45621;-81
2021/07/01 00:12:16;;;;;;;;;12.00;12.00;;;;;17.26;64.63;101084.91;5073268;27;45718;-81
2021/07/01 00:14:42;;;;;;;;;12.25;11.75;;;;;17.24;64.88;101085.03;5092917;27;45659;-81
2021/07/01 00:17:07;;;;;;;;;14.00;12.00;;;;;17.02;64.44;101043.78;5092444;27;46477;-81
2021/07/01 00:19:33;;;;;;;;;11.75;10.00;;;;;17.13;64.80;101067.47;5092967;27;48277;-81
2021/07/01 00:21:58;;;;;;;;;10.75;10.50;;;;;17.26;64.80;101093.69;5095988;27;45777;-80
2021/07/01 00:24:24;;;;;;;;;13.50;13.00;;;;;17.25;64.68;101084.06;5091359;27;45835;-81
2021/07/01 00:26:49;;;;;;;;;13.50;11.00;;;;;17.11;64.54;101071.25;5089422;27;45846;-81
2021/07/01 00:29:15;;;;;;;;;12.25;11.75;;;;;17.23;64.50;101093.09;5095820;27;48145;-81
2021/07/01 00:31:40;;;;;;;;;10.25;10.25;;;;;17.20;65.00;101091.59;5094419;27;45823;-80
2021/07/01 00:34:06;;;;;;;;;11.50;10.75;;;;;17.14;65.25;101084.19;5096169;27;45705;-80
2021/07/01 00:36:32;;;;;;;;;11.00;10.00;;;;;17.18;64.85;101090.88;5083547;27;48412;-81
2021/07/01 00:38:57;;;;;;;;;13.00;11.00;;;;;17.06;64.74;101071.66;5103610;27;45511;-80
2021/07/01 00:41:23;;;;;;;;;13.00;11.00;;;;;16.93;64.77;101057.88;5099054;27;45717;-81
2021/07/01 00:43:48;;;;;;;;;9.00;8.75;;;;;17.07;64.79;101072.50;5083257;27;46055;-80
2021/07/01 00:46:15;;;;;;;;;10.50;8.75;;;;;17.09;64.82;101079.34;5097760;27;45598;-81
2021/07/01 00:48:41;;;;;;;;;10.50;8.25;;;;;17.04;65.00;101075.44;5085166;27;46062;-80
2021/07/01 00:51:06;;;;;;;;;8.50;8.50;;;;;16.93;64.86;101052.56;5090278;27;45677;-79
2021/07/01 00:53:32;;;;;;;;;7.25;7.25;;;;;17.04;64.52;101078.91;5093884;27;46789;-81
2021/07/01 00:56:00;;;;;;;;;10.00;9.50;;;;;17.09;64.26;101097.88;5090475;27;46037;-80
2021/07/01 00:58:25;;;;;;;;;6.25;6.25;;;;;17.06;64.66;101076.09;5072143;28;47351;-80
2021/07/01 01:01:04;;;;;;;;;10.75;10.00;;;;;17.06;64.57;101081.41;5087330;27;45875;-79
2021/07/01 01:03:31;;;;;;;;;8.00;8.00;;;;;16.96;64.56;101075.28;5085618;27;45676;-79
2021/07/01 01:05:57;;;;;;;;;9.00;8.00;;;;;17.00;64.65;101074.03;5094828;27;45884;-80
2021/07/01 01:08:23;;;;;;;;;10.75;9.50;;;;;16.98;64.57;101062.75;5095486;27;45687;-80
2021/07/01 01:10:49;;;;;;;;;8.50;8.00;;;;;16.96;64.68;101064.69;5093857;27;46065;-80
2021/07/01 01:13:23;;;;;;;;;10.25;9.75;;;;;17.04;65.00;101089.50;5093455;27;45780;-81
2021/07/01 01:15:59;;;;;;;;;11.00;11.00;;;;;17.01;64.82;101075.69;5091450;27;46426;-80
2021/07/01 01:18:26;;;;;;;;;11.50;9.25;;;;;16.96;65.02;101069.97;5090249;27;46148;-81
2021/07/01 01:20:53;;;;;;;;;11.00;11.00;;;;;17.00;64.67;101087.28;5095260;27;45599;-80
2021/07/01 01:23:19;;;;;;;;;10.00;10.00;;;;;16.98;65.31;101081.28;5095269;27;45810;-79
2021/07/01 01:25:49;;;;;;;;;12.00;10.25;;;;;16.98;65.20;101078.63;5094534;27;45893;-80
2021/07/01 01:28:16;;;;;;;;;11.00;9.25;;;;;16.85;65.09;101057.72;5093716;27;46110;-80
2021/07/01 01:30:42;;;;;;;;;13.00;12.00;;;;;16.87;65.04;101062.88;5076637;27;45897;-80
2021/07/01 01:33:08;;;;;;;;;11.75;11.00;;;;;16.96;65.25;101077.91;5088194;27;45740;-79
2021/07/01 01:35:35;;;;;;;;;14.75;13.00;;;;;16.95;65.30;101078.91;5094698;27;45750;-79
2021/07/01 01:38:01;;;;;;;;;14.00;13.00;;;;;16.90;65.13;101079.31;5091447;27;46039;-81
2021/07/01 01:40:27;;;;;;;;;9.75;9.75;;;;;16.97;65.25;101088.38;5095190;27;45880;-81
2021/07/01 01:42:53;;;;;;;;;11.75;11.50;;;;;16.83;65.13;101062.31;5094629;27;45627;-82
2021/07/01 01:45:20;;;;;;;;;11.50;10.75;;;;;16.85;65.39;101064.81;5094031;27;46378;-80
2021/07/01 01:47:49;;;;;;;;;14.50;13.00;;;;;16.83;65.46;101062.31;5093408;27;46111;-79
2021/07/01 01:50:19;;;;;;;;;15.00;13.75;;;;;16.96;65.50;101089.34;5082798;27;46095;-81
2021/07/01 01:52:46;;;;;;;;;14.50;14.00;;;;;16.95;65.93;101089.50;5088938;27;45868;-80
2021/07/01 01:55:13;;;;;;;;;16.25;15.50;;;;;16.78;65.66;101065.41;5094303;27;46413;-79
2021/07/01 01:57:41;;;;;;;;;13.00;12.25;;;;;16.89;65.82;101074.19;5092028;27;46180;-80
2021/07/01 02:00:07;;;;;;;;;14.25;13.25;;;;;16.91;65.78;101083.63;5094350;27;45694;-80
2021/07/01 02:02:33;;;;;;;;;16.50;15.25;;;;;16.84;66.08;101064.00;5062155;27;45692;-81
2021/07/01 02:04:58;;;;;;;;;15.00;13.25;;;;;16.91;65.60;101067.75;5075778;27;46042;-81
2021/07/01 02:07:23;;;;;;;;;19.25;13.00;;;;;16.79;66.00;101048.50;5083616;27;46488;-80
2021/07/01 02:09:49;;;;;;;;;17.25;16.25;;;;;16.94;66.00;101069.31;5094592;27;45737;-80
2021/07/01 02:12:14;;;;;;;;;16.50;14.50;;;;;16.92;65.84;101071.22;5076031;27;45703;-80
2021/07/01 02:14:40;;;;;;;;;15.50;14.50;;;;;16.79;66.28;101056.44;5091487;27;45883;-80
2021/07/01 02:17:05;;;;;;;;;14.25;13.25;;;;;16.78;66.33;101065.41;5094344;27;46931;-79
2021/07/01 02:19:30;;;;;;;;;17.25;15.00;;;;;16.72;66.61;101052.72;5076233;27;45890;-80
2021/07/01 02:21:56;;;;;;;;;20.00;17.50;;;;;16.80;66.62;101073.16;5090625;27;45686;-81
2021/07/01 02:24:21;;;;;;;;;13.75;13.50;;;;;16.58;66.64;101034.53;5093325;27;45704;-80
2021/07/01 02:26:47;;;;;;;;;17.50;15.50;;;;;16.76;66.90;101067.31;5092789;27;45970;-80
2021/07/01 02:29:12;;;;;;;;;16.00;15.00;;;;;16.72;66.90;101065.94;5063797;27;45815;-81
2021/07/01 02:31:38;;;;;;;;;17.25;14.00;;;;;16.64;66.75;101059.63;5089181;27;45688;-81
2021/07/01 02:34:03;;;;;;;;;16.75;14.00;;;;;16.63;66.92;101060.59;5075400;27;47308;-80
2021/07/01 02:36:29;;;;;;;;;18.00;14.50;;;;;16.49;66.84;101037.16;5094047;27;46134;-81
2021/07/01 02:38:54;;;;;;;;;15.75;15.00;;;;;16.59;66.97;101061.88;5098886;27;46132;-80
2021/07/01 02:41:20;;;;;;;;;16.75;15.00;;;;;16.36;66.93;101022.38;5086919;27;46112;-81
2021/07/01 02:43:45;;;;;;;;;14.00;12.50;;;;;16.60;67.18;101067.03;5099100;27;45670;-81
2021/07/01 02:46:10;;;;;;;;;14.50;14.00;;;;;16.51;66.92;101048.47;5099391;27;45694;-79
2021/07/01 02:48:36;;;;;;;;;15.75;13.00;;;;;16.59;67.20;101064.50;5099046;27;45737;-79
2021/07/01 02:51:01;;;;;;;;;14.00;12.00;;;;;16.45;67.24;101036.63;5099428;27;45759;-82
2021/07/01 02:53:26;;;;;;;;;15.75;14.75;;;;;16.49;67.58;101050.41;5084716;27;46465;-80
2021/07/01 02:55:52;;;;;;;;;12.50;12.00;;;;;16.29;67.27;101016.00;5092194;27;46071;-80
2021/07/01 02:58:17;;;;;;;;;16.50;15.00;;;;;16.24;67.43;101004.97;5091323;27;45555;-80
2021/07/01 03:00:43;;;;;;;;;15.25;14.50;;;;;16.51;67.46;101040.53;5090697;27;45733;-79
2021/07/01 03:03:08;;;;;;;;;14.00;14.00;;;;;16.54;67.35;101046.38;5089832;27;45951;-80
2021/07/01 03:05:33;;;;;;;;;13.00;13.00;;;;;16.51;67.25;101049.31;5092180;27;45935;-79
2021/07/01 03:07:59;;;;;;;;;15.25;14.00;;;;;16.50;67.14;101044.97;5092410;27;45844;-81
2021/07/01 03:10:24;;;;;;;;;17.75;16.25;;;;;16.56;67.74;101049.72;5085446;27;45689;-80
2021/07/01 03:12:50;;;;;;;;;16.50;15.50;;;;;16.54;67.25;101035.78;5093044;27;45840;-79
2021/07/01 03:15:15;;;;;;;;;18.25;16.00;;;;;16.53;67.24;101034.09;5080887;27;45733;-80
2021/07/01 03:17:41;;;;;;;;;16.50;15.00;;;;;16.52;67.54;101036.91;5093467;27;46096;-81
2021/07/01 03:20:07;;;;;;;;;16.25;15.25;;;;;16.59;67.54;101045.97;5069154;27;46109;-79
2021/07/01 03:22:33;;;;;;;;;13.00;13.00;;;;;16.41;67.20;101015.88;5092471;27;46400;-80
2021/07/01 03:24:58;;;;;;;;;16.00;13.25;;;;;16.58;67.14;101047.75;5092853;27;45856;-79
2021/07/01 03:27:23;;;;;;;;;17.25;15.00;;;;;16.38;67.68;101020.44;5093543;27;45732;-80
2021/07/01 03:29:49;;;;;;;;;19.75;17.00;;;;;16.56;67.28;101043.59;5064596;27;45680;-80
2021/07/01 03:32:14;;;;;;;;;15.00;14.25;;;;;16.48;67.63;101036.34;5087979;27;46723;-80
2021/07/01 03:34:40;;;;;;;;;15.50;14.25;;;;;16.36;67.48;101013.59;5090900;27;46118;-80
2021/07/01 03:37:05;;;;;;;;;14.50;13.25;;;;;16.48;67.47;101038.13;5082647;27;45726;-80
2021/07/01 03:39:31;;;;;;;;;17.50;15.25;;;;;16.38;67.66;101023.09;5093105;27;45575;-80
2021/07/01 03:41:56;;;;;;;;;21.50;18.75;;;;;16.31;67.65;101006.09;5092391;27;46561;-79
2021/07/01 03:44:22;;;;;;;;;17.00;16.75;;;;;16.45;67.71;101033.97;5091532;27;45974;-81
2021/07/01 03:46:47;;;;;;;;;16.75;15.00;;;;;16.44;67.68;101039.38;5085825;27;45738;-81
2021/07/01 03:49:13;;;;;;;;;16.75;16.00;;;;;16.34;67.53;101024.34;5086754;27;45613;-81
2021/07/01 03:51:39;;;;;;;;;20.25;18.25;;;;;16.47;67.86;101053.16;5091627;27;46458;-81
2021/07/01 03:54:05;;;;;;;;;17.50;15.25;;;;;16.42;67.76;101049.25;5092828;27;46187;-80
2021/07/01 03:56:41;;;;;;;;;20.50;19.00;;;;;16.46;67.58;101061.25;5072403;27;46098;-80
2021/07/01 03:59:11;;;;;;;;;21.25;19.25;;;;;16.44;67.44;101060.53;5092800;27;45807;-80
2021/07/01 04:01:37;;;;;;;;;21.50;18.75;;;;;16.12;67.84;101005.22;5083999;27;46379;-79
2021/07/01 04:04:03;;;;;;;;;18.75;18.25;;;;;16.35;67.94;101056.91;5087638;27;46589;-79
2021/07/01 04:06:29;;;;;;;;;21.50;19.75;;;;;16.28;67.79;101051.31;5086239;27;46238;-81
2021/07/01 04:08:55;;;;;;;;;19.25;18.50;;;;;16.29;67.60;101050.34;5092069;27;45915;-80
2021/07/01 04:11:20;;;;;;;;;22.25;19.00;;;;;16.17;67.91;101030.28;5092437;27;46289;-81
2021/07/01 04:13:46;;;;;;;;;20.50;17.75;;;;;16.31;67.85;101058.13;5092414;27;46445;-80
2021/07/01 04:16:11;;;;;;;;;17.50;15.75;;;;;16.14;67.82;101021.78;5085644;27;45674;-79
2021/07/01 04:18:36;;;;;;;;;21.50;19.00;;;;;16.28;68.05;101051.31;5092563;27;45686;-81
2021/07/01 04:21:02;;;;;;;;;17.25;17.25;;;;;16.26;67.93;101055.91;5092259;27;46254;-80
2021/07/01 04:23:27;;;;;;;;;14.00;13.25;;;;;16.15;67.90;101032.22;5092022;27;46142;-81
2021/07/01 04:25:53;;;;;;;;;17.25;15.75;;;;;16.27;67.84;101062.88;5090299;27;45636;-81
2021/07/01 04:28:18;;;;;;;;;14.50;14.50;;;;;16.22;67.91;101043.09;5092620;27;45754;-80
2021/07/01 04:30:43;;;;;;;;;16.50;14.50;;;;;16.08;67.75;101025.81;5089563;27;45864;-81
2021/07/01 04:33:09;;;;;;;;;20.75;18.75;;;;;16.29;67.76;101068.03;5087049;27;46022;-81
2021/07/01 04:35:35;;;;;;;;;20.75;18.00;;;;;16.29;67.82;101063.59;5090824;27;45644;-81
2021/07/01 04:38:00;;;;;;;;;15.25;14.75;;;;;16.18;67.74;101044.34;5092048;27;45832;-80
2021/07/01 04:40:26;;;;;;;;;16.00;14.75;;;;;16.28;67.60;101061.06;5068811;27;48204;-80
2021/07/01 04:42:51;;;;;;;;;18.75;17.50;;;;;16.27;67.48;101064.66;5091773;27;46217;-79
2021/07/01 04:45:16;;;;;;;;;16.50;15.50;;;;;16.27;67.77;101065.50;5084963;27;45777;-81
2021/07/01 04:47:42;;;;;;;;;18.00;17.50;;;;;16.14;67.82;101051.69;5092629;27;45842;-80
2021/07/01 04:50:08;;;;;;;;;17.00;16.00;;;;;16.27;67.80;101072.59;5092544;27;45751;-80
2021/07/01 04:52:34;;;;;;;;;16.75;15.50;;;;;16.27;67.70;101067.31;5092067;27;46285;-80
2021/07/01 04:54:59;;;;;;;;;21.00;20.25;;;;;16.27;67.77;101064.66;5090707;27;45793;-80
2021/07/01 04:57:24;;;;;;;;;16.00;15.25;;;;;16.33;67.74;101082.66;5085354;27;45571;-80
2021/07/01 04:59:50;;;;;;;;;16.75;15.25;;;;;16.31;68.10;101080.13;5097929;27;46616;-80
2021/07/01 05:02:15;;;;;;;;;19.75;17.75;;;;;16.29;67.79;101070.69;5090154;27;46254;-80
2021/07/01 05:04:41;;;;;;;;;19.75;16.50;;;;;16.27;68.09;101085.81;5077674;27;45687;-80
2021/07/01 05:07:06;;;;;;;;;18.00;17.25;;;;;16.23;68.23;101074.69;5098488;27;45737;-80
2021/07/01 05:09:32;;;;;;;;;18.00;17.25;;;;;16.24;68.08;101083.47;5096981;27;45638;-79
2021/07/01 05:11:57;;;;;;;;;16.50;15.00;;;;;16.23;68.11;101082.63;5078371;27;46136;-80
2021/07/01 05:14:23;;;;;;;;;20.25;17.00;;;;;16.20;68.05;101079.38;5087198;27;45833;-81
2021/07/01 05:16:48;;;;;;;;;17.50;15.25;;;;;16.24;68.09;101084.31;5090632;27;45673;-81
2021/07/01 05:19:14;;;;;;;;;17.50;14.75;;;;;16.22;67.93;101083.59;5095505;27;46671;-79
2021/07/01 05:21:40;;;;;;;;;19.00;17.75;;;;;16.26;67.88;101087.63;5095225;27;45957;-81
2021/07/01 05:24:05;;;;;;;;;18.00;16.50;;;;;16.30;68.11;101088.22;5095136;27;45682;-80
2021/07/01 05:26:31;;;;;;;;;20.25;15.50;;;;;16.24;67.87;101070.25;5094809;27;45590;-81
2021/07/01 05:28:57;;;;;;;;;16.00;14.50;;;;;16.37;67.84;101084.03;5093552;27;46889;-81
2021/07/01 05:31:22;;;;;;;;;14.50;14.25;;;;;16.35;68.00;101076.28;5093989;27;46177;-80
2021/07/01 05:33:47;;;;;;;;;21.25;19.00;;;;;16.40;67.97;101086.44;5094810;27;45582;-80
2021/07/01 05:36:13;;;;;;;;;17.50;16.25;;;;;16.36;68.19;101085.00;5095037;27;45678;-80
2021/07/01 05:38:38;;;;;;;;;20.25;18.25;;;;;16.33;67.92;101080.00;5093263;27;46901;-80
2021/07/01 05:41:04;;;;;;;;;21.50;18.50;;;;;16.14;67.96;101045.59;5093605;27;45968;-80
2021/07/01 05:43:29;;;;;;;;;19.75;19.00;;;;;16.29;68.17;101081.25;5094629;27;45888;-79
2021/07/01 05:45:55;;;;;;;;;19.75;18.75;;;;;16.44;68.05;101102.88;5094793;27;45702;-79
2021/07/01 05:48:22;;;;;;;;;25.25;24.00;;;;;16.45;68.07;101104.53;5092629;27;46868;-79
2021/07/01 05:50:58;;;;;;;;;21.00;20.00;;;;;16.37;67.97;101089.34;5094594;27;46187;-81
2021/07/01 05:53:29;;;;;;;;;18.75;16.25;;;;;16.42;68.06;101088.94;5094729;27;45752;-81
2021/07/01 05:55:55;;;;;;;;;21.50;18.00;;;;;16.47;67.90;101099.94;5094522;27;45941;-79
2021/07/01 05:58:21;;;;;;;;;20.50;16.75;;;;;16.30;68.19;101059.94;5083590;27;48399;-81
2021/07/01 06:00:46;;;;;;;;;20.75;16.75;;;;;16.35;67.81;101059.56;5085648;27;45893;-81
2021/07/01 06:03:11;;;;;;;;;17.00;15.00;;;;;16.36;67.79;101056.75;5081697;27;45734;-81
2021/07/01 06:05:43;;;;;;;;;17.75;16.00;;;;;16.58;67.67;101090.09;5093296;27;45648;-82
2021/07/01 06:08:11;;;;;;;;;18.25;16.25;;;;;16.67;67.59;101102.56;5092990;27;45766;-81
2021/07/01 06:10:39;;;;;;;;;17.75;16.50;;;;;16.45;67.65;101062.22;5093354;27;45765;-80
2021/07/01 06:13:06;;;;;;;;;16.75;15.75;;;;;16.73;67.52;101106.47;5091990;27;45944;-81
2021/07/01 06:15:33;;;;;;;;;17.50;15.50;;;;;16.52;67.52;101063.38;5093123;27;45884;-82
2021/07/01 06:18:00;;;;;;;;;15.75;15.00;;;;;16.65;67.51;101082.47;5092115;27;46428;-79
2021/07/01 06:20:25;;;;;;;;;19.25;17.50;;;;;16.75;67.19;101097.41;5093382;27;46743;-79
2021/07/01 06:22:52;;;;;;;;;24.00;22.00;;;;;16.81;67.37;101095.19;5082788;27;46783;-77
2021/07/01 06:25:17;;;;;;;;;14.00;12.75;;;;;16.84;67.15;101102.88;5090239;27;45789;-79
2021/07/01 06:27:43;;;;;;;;;16.00;14.25;;;;;16.82;67.02;101083.63;5090585;27;46220;-79
2021/07/01 06:32:46;;;;;;;;;14.75;12.00;;;;;16.92;66.55;101109.13;5081301;27;45792;-78
2021/07/01 06:35:15;;;;;;;;;15.75;15.50;;;;;16.94;66.56;101109.00;5079745;27;48019;-79
2021/07/01 06:37:42;;;;;;;;;19.75;16.50;;;;;16.98;66.88;101113.03;5084798;27;47417;-79
2021/07/01 06:40:12;;;;;;;;;14.50;13.25;;;;;17.00;66.39;101109.28;5092573;27;46038;-78
2021/07/01 06:42:46;;;;;;;;;13.75;13.00;;;;;17.04;66.52;101110.69;5093146;27;45696;-78
2021/07/01 06:45:12;;;;;;;;;17.00;16.25;;;;;17.09;66.53;101115.56;5085995;27;45634;-80
2021/07/01 06:47:39;;;;;;;;;14.75;13.00;;;;;17.12;66.56;101118.75;5088576;27;46837;-80
2021/07/01 06:50:05;;;;;;;;;12.25;11.75;;;;;17.16;66.78;101104.28;5094016;27;45830;-78
2021/07/01 06:52:31;;;;;;;;;13.75;13.75;;;;;17.10;66.42;101106.66;5094557;27;45816;-82
2021/07/01 06:54:58;;;;;;;;;14.75;14.25;;;;;17.17;65.99;101107.75;5082792;27;45840;-79
2021/07/01 06:57:25;;;;;;;;;11.00;10.00;;;;;17.18;65.92;101104.13;5088775;27;46529;-78
2021/07/01 06:59:53;;;;;;;;;15.00;13.50;;;;;17.22;65.75;101110.00;5063584;27;47613;-82
2021/07/01 07:02:19;;;;;;;;;12.25;11.50;;;;;17.17;65.85;101107.75;5066397;27;45855;-77
2021/07/01 07:04:45;;;;;;;;;13.50;12.25;;;;;17.25;65.42;101113.19;5088548;27;46957;-78
2021/07/01 07:07:11;;;;;;;;;15.50;15.25;;;;;17.29;65.31;101116.38;5090716;27;46138;-80
2021/07/01 07:09:39;;;;;;;;;14.50;13.75;;;;;17.21;65.51;101098.56;5082024;27;46965;-79
2021/07/01 07:12:04;;;;;;;;;14.75;13.50;;;;;17.28;65.05;101122.66;5088308;27;45991;-78
2021/07/01 07:14:30;;;;;;;;;14.75;13.25;;;;;17.28;65.09;101114.72;5091903;27;45990;-78
2021/07/01 07:16:57;;;;;;;;;14.25;13.00;;;;;17.26;64.85;101116.69;5091238;27;46343;-78
2021/07/01 07:19:23;;;;;;;;;14.75;13.75;;;;;17.29;64.75;101130.47;5084637;27;46265;-77
2021/07/01 07:21:51;;;;;;;;;16.25;14.00;;;;;17.30;64.66;101137.44;5075045;27;46131;-77
2021/07/01 07:24:18;;;;;;;;;12.75;12.00;;;;;17.28;64.63;101127.94;5093822;27;45721;-77
2021/07/01 07:30:06;;;;;;;;;19.75;18.25;;;;;17.29;64.42;101137.59;5094684;27;45840;-77
2021/07/01 07:32:32;;;;;;;;;21.25;19.00;;;;;17.23;64.14;101109.84;5094975;27;45770;-79
2021/07/01 07:35:01;;;;;;;;;21.50;19.75;;;;;17.36;64.29;101139.53;5095003;27;45608;-76
2021/07/01 07:37:28;;;;;;;;;19.75;18.75;;;;;17.34;64.30;101124.75;5094962;27;46311;-78
2021/07/01 07:40:02;;;;;;;;;18.50;17.75;;;;;17.37;64.43;101129.78;5094753;27;46318;-77
2021/07/01 07:45:52;;;;;;;;;21.00;20.25;;;;;17.36;64.14;101123.66;5084858;27;45848;-79
2021/07/01 07:48:19;;;;;;;;;22.00;19.75;;;;;17.42;63.88;101120.44;5094372;27;45744;-77
2021/07/01 07:50:54;;;;;;;;;20.50;19.25;;;;;17.47;64.07;101127.97;5094508;27;46168;-78
2021/07/01 07:53:30;;;;;;;;;24.25;21.25;;;;;17.53;63.74;101133.53;5094832;27;45632;-78
2021/07/01 07:56:07;;;;;;;;;21.50;19.00;;;;;17.59;63.79;101130.38;5094836;27;45860;-78
2021/07/01 07:58:38;;;;;;;;;20.50;18.50;;;;;17.55;64.20;101130.72;5094840;27;45664;-77
2021/07/01 08:01:03;;;;;;;;;19.50;18.75;;;;;17.58;63.85;101117.22;5094875;27;45667;-78
2021/07/01 08:03:34;;;;;;;;;23.00;17.25;;;;;17.67;63.88;101127.00;5095010;27;45707;-77
2021/07/01 08:06:02;;;;;;;;;19.00;17.25;;;;;17.74;63.87;101133.41;5095361;27;45721;-77
2021/07/01 08:08:32;;;;;;;;;19.75;19.25;;;;;17.57;63.35;101100.47;5092627;27;47226;-77
2021/07/01 08:11:00;;;;;;;;;25.25;21.50;;;;;17.73;63.37;101118.47;5095010;27;46134;-78
2021/07/01 08:13:26;;;;;;;;;19.25;17.00;;;;;17.84;63.61;101138.69;5093704;27;45762;-77
2021/07/01 08:15:52;;;;;;;;;26.25;24.00;;;;;17.76;63.05;101106.78;5093400;27;45555;-77
2021/07/01 08:18:41;;;;;;;;;20.00;18.75;;;;;17.80;63.31;101100.19;5076514;27;45698;-78
2021/07/01 08:21:09;;;;;;;;;26.75;21.25;;;;;17.90;63.69;101096.53;5094779;27;46156;-76
2021/07/01 08:23:35;;;;;;;;;23.25;21.00;;;;;18.08;63.20;101117.00;5095071;27;45590;-78
2021/07/01 08:32:27;;;;;;;;;19.50;17.00;;;;;18.20;63.07;101105.19;5097441;27;46118;-78
2021/07/01 08:34:52;;;;;;;;;20.00;19.00;;;;;18.28;62.62;101115.94;5097958;27;45584;-76
2021/07/01 08:37:21;;;;;;;;;18.75;18.00;;;;;18.35;63.09;101112.53;5098455;27;45708;-79
2021/07/01 08:39:49;;;;;;;;;21.00;17.50;;;;;18.22;62.95;101093.47;5101882;27;46597;-78
2021/07/01 08:42:21;;;;;;;;;20.75;18.25;;;;;18.41;62.81;101122.56;5080459;27;46993;-77
2021/07/01 08:44:57;;;;;;;;;24.25;24.25;;;;;18.49;62.25;101124.50;5097583;27;45550;-79
2021/07/01 08:47:30;;;;;;;;;21.00;19.00;;;;;18.47;62.50;101110.53;5097780;27;45587;-78
2021/07/01 08:50:01;;;;;;;;;21.25;18.75;;;;;18.45;62.25;101113.34;5097531;27;46697;-79
2021/07/01 08:52:29;;;;;;;;;25.25;22.25;;;;;18.60;62.47;101128.81;5097286;27;46019;-77
2021/07/01 08:55:06;;;;;;;;;21.00;21.00;;;;;18.66;62.57;101112.28;5097668;27;45686;-77
2021/07/01 08:57:36;;;;;;;;;20.75;20.75;;;;;18.70;62.16;101122.47;5097317;27;45633;-79
2021/07/01 09:00:11;;;;;;;;;22.00;21.25;;;;;18.74;62.01;101110.53;5097087;27;46400;-81
2021/07/01 09:02:42;;;;;;;;;19.00;17.50;;;;;18.75;62.22;101114.88;5097046;27;47314;-78
2021/07/01 09:05:18;;;;;;;;;25.00;22.75;;;;;18.79;61.65;101108.28;5097310;27;45586;-78
2021/07/01 09:07:53;;;;;;;;;20.25;18.25;;;;;18.88;61.51;101105.72;5096912;27;45558;-77
2021/07/01 09:10:22;;;;;;;;;20.25;20.00;;;;;18.96;61.81;101116.41;5096948;27;45593;-77
2021/07/01 09:12:52;;;;;;;;;19.75;18.25;;;;;19.00;61.75;101107.19;5095678;27;47469;-76
2021/07/01 09:15:19;;;;;;;;;23.25;20.50;;;;;19.03;61.54;101101.56;5096928;27;45490;-76
2021/07/01 09:17:48;;;;;;;;;22.50;20.50;;;;;19.07;61.38;101110.88;5096919;27;45764;-78
2021/07/01 09:20:20;;;;;;;;;20.75;20.50;;;;;19.12;61.16;101113.91;5096409;27;46901;-77
2021/07/01 09:22:49;;;;;;;;;21.75;20.00;;;;;19.13;60.88;101113.78;5092922;27;46383;-77
2021/07/01 09:25:17;;;;;;;;;21.50;20.75;;;;;19.17;60.70;101116.94;5094811;27;45709;-78
2021/07/01 09:27:47;;;;;;;;;24.50;20.75;;;;;19.24;60.54;101121.50;5095132;27;45649;-79
2021/07/01 09:30:14;;;;;;;;;24.50;21.75;;;;;19.26;60.57;101119.56;5095037;27;46867;-77
2021/07/01 09:32:42;;;;;;;;;22.50;19.50;;;;;19.29;61.10;101127.19;5095292;27;46184;-77
2021/07/01 09:35:11;;;;;;;;;21.50;20.25;;;;;19.33;60.54;101116.25;5096142;27;45672;-77
2021/07/01 09:37:42;;;;;;;;;25.00;20.50;;;;;19.30;60.95;101106.78;5097266;27;45685;-79
2021/07/01 09:40:10;;;;;;;;;22.25;21.75;;;;;19.35;60.83;101120.44;5096834;27;45504;-78
2021/07/01 09:42:37;;;;;;;;;20.00;18.75;;;;;19.38;60.80;101112.16;5096576;27;46174;-75
2021/07/01 09:45:08;;;;;;;;;21.00;20.25;;;;;19.43;60.74;101119.69;5096695;27;45626;-79
2021/07/01 09:47:37;;;;;;;;;21.00;19.50;;;;;19.47;60.99;101119.25;5096862;27;45535;-77
2021/07/01 09:50:04;;;;;;;;;22.50;19.00;;;;;19.51;60.35;101125.09;5077736;27;46472;-78
2021/07/01 09:52:35;;;;;;;;;21.75;19.75;;;;;19.56;60.67;101123.63;5078191;27;47455;-77
2021/07/01 09:55:03;;;;;;;;;18.75;18.00;;;;;19.63;60.29;101123.88;5096970;27;45549;-77
2021/07/01 10:03:56;;;;;;;;;22.75;18.75;;;;;19.78;60.15;101127.63;5103804;27;45872;-77
2021/07/01 10:06:22;;;;;;;;;17.50;17.00;;;;;19.82;60.00;101122.81;5103747;27;45607;-79
2021/07/01 10:08:48;;;;;;;;;22.75;20.75;;;;;19.84;59.49;101111.03;5103558;27;45532;-78
2021/07/01 10:11:14;;;;;;;;;20.50;19.50;;;;;19.93;60.05;101112.75;5101508;27;45805;-77
2021/07/01 10:13:51;;;;;;;;;23.00;21.00;;;;;20.00;59.47;101116.47;5096850;27;46119;-77
2021/07/01 10:16:28;;;;;;;;;21.00;20.25;;;;;20.01;59.58;101111.97;5096448;27;45818;-77
2021/07/01 10:18:54;;;;;;;;;20.00;18.50;;;;;20.12;59.06;101114.38;5096588;27;45686;-77
2021/07/01 10:21:20;;;;;;;;;20.00;16.75;;;;;20.13;58.85;101115.22;5096143;27;45484;-78
2021/07/01 10:23:49;;;;;;;;;20.50;19.75;;;;;20.19;58.81;101120.72;5096247;27;46002;-75
2021/07/01 10:26:21;;;;;;;;;18.25;15.25;;;;;20.19;58.68;101114.59;5096567;27;45720;-77
2021/07/01 10:29:16;;;;;;;;;19.75;18.25;;;;;20.27;58.51;101128.75;5096169;27;45770;-79
2021/07/01 10:32:04;;;;;;;;;20.00;18.50;;;;;20.31;58.71;101106.16;5012952;28;46527;-76
2021/07/01 10:34:30;;;;;;;;;20.00;18.75;;;;;20.37;58.48;101105.53;5012646;28;47012;-77
2021/07/01 10:37:13;;;;;;;;;19.50;18.25;;;;;20.40;58.17;101113.22;5013120;28;45838;-77
2021/07/01 10:39:40;;;;;;;;;20.25;17.75;;;;;20.46;58.37;101117.03;5013028;28;45605;-79
2021/07/01 10:42:05;;;;;;;;;17.50;16.25;;;;;20.45;57.72;101105.59;5012975;28;45761;-78
2021/07/01 10:44:31;;;;;;;;;20.00;19.00;;;;;20.48;57.70;101115.91;5013126;28;45606;-79
2021/07/01 10:46:57;;;;;;;;;18.00;17.25;;;;;20.42;57.45;101116.53;5013115;28;45599;-77
2021/07/01 10:49:36;;;;;;;;;22.75;20.75;;;;;20.49;57.41;101108.75;5013319;28;45966;-77
2021/07/01 10:52:04;;;;;;;;;20.75;19.75;;;;;20.49;57.83;101106.91;5012788;28;46072;-77
2021/07/01 10:54:30;;;;;;;;;22.00;20.75;;;;;20.60;57.79;101123.59;5012991;28;45990;-80
2021/07/01 10:57:07;;;;;;;;;19.50;18.75;;;;;20.66;57.68;101123.78;5013061;28;45760;-79
2021/07/01 10:59:53;;;;;;;;;23.25;19.75;;;;;20.71;57.53;101115.31;5013228;28;45558;-77
2021/07/01 11:02:25;;;;;;;;;19.75;19.00;;;;;20.72;57.16;101111.66;5011401;28;46627;-77
2021/07/01 11:04:52;;;;;;;;;27.00;23.50;;;;;20.71;57.42;101109.97;5012887;28;46085;-76
2021/07/01 11:07:19;;;;;;;;;23.00;20.50;;;;;20.79;56.99;101123.31;5027124;27;45782;-79
2021/07/01 11:09:47;;;;;;;;;19.75;19.75;;;;;20.77;57.20;101109.34;5111376;27;45550;-76
2021/07/01 11:12:13;;;;;;;;;21.50;20.50;;;;;20.86;56.93;101113.69;5095439;27;46465;-78
2021/07/01 11:14:45;;;;;;;;;22.75;19.00;;;;;20.94;56.87;101113.72;5095223;27;46074;-78
2021/07/01 11:17:10;;;;;;;;;23.75;20.25;;;;;21.00;57.30;101112.22;5095521;27;45972;-77
2021/07/01 11:19:46;;;;;;;;;19.25;18.50;;;;;20.98;56.98;101106.22;5095629;27;45686;-78
2021/07/01 11:22:13;;;;;;;;;23.75;20.00;;;;;21.12;56.81;101125.03;5077009;27;48346;-77
2021/07/01 11:24:45;;;;;;;;;20.50;19.25;;;;;21.18;56.79;101116.44;5076660;27;47270;-76
2021/07/01 11:27:12;;;;;;;;;20.00;19.25;;;;;21.23;56.59;101115.94;5095060;27;45643;-76
2021/07/01 11:29:46;;;;;;;;;20.25;17.75;;;;;21.28;56.33;101116.25;5095368;27;45508;-77
2021/07/01 11:32:24;;;;;;;;;19.25;16.75;;;;;21.17;56.25;101095.25;5095160;27;45765;-77